createdAt,value
2023-04-15T00:01:44.895Z,7.70
2023-04-15T00:04:10.919Z,7.70
2023-04-15T00:06:37.650Z,7.70
2023-04-15T00:09:03.667Z,7.70
2023-04-15T00:11:29.943Z,7.70
2023-04-15T00:13:55.857Z,7.70
2023-04-15T00:16:21.824Z,7.70
2023-04-15T00:18:47.766Z,7.70
2023-04-15T00:21:13.799Z,7.70
2023-04-15T00:23:39.902Z,7.68
2023-04-15T00:26:05.758Z,7.70
2023-04-15T00:28:31.805Z,7.70
2023-04-15T00:30:57.771Z,7.70
2023-04-15T00:33:23.829Z,7.70
2023-04-15T00:35:50.370Z,7.70
2023-04-15T00:38:17.163Z,7.70
2023-04-15T00:40:43.323Z,7.70
2023-04-15T00:43:09.451Z,7.70
2023-04-15T00:45:35.375Z,7.70
2023-04-15T00:48:01.819Z,7.72
2023-04-15T00:50:27.764Z,7.70
2023-04-15T00:52:53.680Z,7.70
2023-04-15T00:55:20.331Z,7.70
2023-04-15T00:57:46.384Z,7.70
2023-04-15T01:00:13.024Z,7.62
2023-04-15T01:02:39.166Z,7.60
2023-04-15T01:05:05.590Z,7.64
2023-04-15T01:07:31.597Z,7.60
2023-04-15T01:09:57.972Z,7.60
2023-04-15T01:12:26.843Z,7.60
2023-04-15T01:14:54.277Z,7.60
2023-04-15T01:17:20.835Z,7.60
2023-04-15T01:19:46.925Z,7.68
2023-04-15T01:22:13.493Z,7.70
2023-04-15T01:24:40.267Z,7.70
2023-04-15T01:27:06.216Z,7.62
2023-04-15T01:29:37.594Z,7.66
2023-04-15T01:32:05.153Z,7.60
2023-04-15T01:34:32.123Z,7.60
2023-04-15T01:36:59.068Z,7.60
2023-04-15T01:39:25.205Z,7.60
2023-04-15T01:41:51.645Z,7.60
2023-04-15T01:44:17.560Z,7.60
2023-04-15T01:46:43.577Z,7.60
2023-04-15T01:49:09.922Z,7.60
2023-04-15T01:51:35.774Z,7.60
2023-04-15T01:54:01.736Z,7.54
2023-04-15T01:56:29.226Z,7.58
2023-04-15T01:58:55.104Z,7.56
2023-04-15T02:01:21.475Z,7.58
2023-04-15T02:03:47.915Z,7.60
2023-04-15T02:06:15.289Z,7.60
2023-04-15T02:08:41.351Z,7.60
2023-04-15T02:11:07.560Z,7.60
2023-04-15T02:13:33.578Z,7.58
2023-04-15T02:16:00.073Z,7.52
2023-04-15T02:18:26.535Z,7.50
2023-04-15T02:20:52.671Z,7.50
2023-04-15T02:23:18.578Z,7.50
2023-04-15T02:25:53.822Z,7.50
2023-04-15T02:28:21.205Z,7.50
2023-04-15T02:30:52.422Z,7.50
2023-04-15T02:33:18.501Z,7.50
2023-04-15T02:35:45.132Z,7.50
2023-04-15T02:38:11.472Z,7.50
2023-04-15T02:40:37.476Z,7.50
2023-04-15T02:43:04.722Z,7.46
2023-04-15T02:45:31.025Z,7.40
2023-04-15T02:48:03.347Z,7.40
2023-04-15T02:50:29.938Z,7.40
2023-04-15T02:52:56.044Z,7.36
2023-04-15T02:55:21.985Z,7.30
2023-04-15T02:57:48.192Z,7.30
2023-04-15T03:00:14.412Z,7.30
2023-04-15T03:02:42.796Z,7.30
2023-04-15T03:05:13.552Z,7.32
2023-04-15T03:07:42.671Z,7.40
2023-04-15T03:10:09.981Z,7.40
2023-04-15T03:12:35.944Z,7.40
2023-04-15T03:15:02.941Z,7.40
2023-04-15T03:17:34.023Z,7.40
2023-04-15T03:20:05.277Z,7.50
2023-04-15T03:22:32.545Z,7.50
2023-04-15T03:24:58.662Z,7.50
2023-04-15T03:27:25.219Z,7.40
2023-04-15T03:29:52.073Z,7.50
2023-04-15T03:32:18.875Z,7.50
2023-04-15T03:34:44.926Z,7.50
2023-04-15T03:37:11.204Z,7.50
2023-04-15T03:39:37.030Z,7.50
2023-04-15T03:42:03.134Z,7.50
2023-04-15T03:44:29.862Z,7.50
2023-04-15T03:46:55.978Z,7.50
2023-04-15T03:49:22.532Z,7.50
2023-04-15T03:51:48.328Z,7.50
2023-04-15T03:54:14.619Z,7.54
2023-04-15T03:56:40.651Z,7.56
2023-04-15T03:59:06.573Z,7.60
2023-04-15T04:01:32.486Z,7.50
2023-04-15T04:03:58.440Z,7.50
2023-04-15T04:06:24.520Z,7.54
2023-04-15T04:08:50.361Z,7.60
2023-04-15T04:11:16.640Z,7.60
2023-04-15T04:13:42.503Z,7.60
2023-04-15T04:16:08.549Z,7.60
2023-04-15T04:18:34.680Z,7.60
2023-04-15T04:21:00.851Z,7.60
2023-04-15T04:23:26.802Z,7.58
2023-04-15T04:25:52.864Z,7.60
2023-04-15T04:28:18.736Z,7.60
2023-04-15T04:30:44.833Z,7.56
2023-04-15T04:33:10.984Z,7.50
2023-04-15T04:35:37.083Z,7.50
2023-04-15T04:38:03.727Z,7.50
2023-04-15T04:40:30.150Z,7.50
2023-04-15T04:42:55.993Z,7.50
2023-04-15T04:45:22.002Z,7.50
2023-04-15T04:47:48.052Z,7.50
2023-04-15T04:50:14.016Z,7.50
2023-04-15T04:52:39.924Z,7.50
2023-04-15T04:55:08.096Z,7.50
2023-04-15T04:57:38.783Z,7.42
2023-04-15T05:00:07.873Z,7.50
2023-04-15T05:02:34.706Z,7.50
2023-04-15T05:05:00.793Z,7.50
2023-04-15T05:07:26.754Z,7.50
2023-04-15T05:09:52.827Z,7.58
2023-04-15T05:12:18.766Z,7.60
2023-04-15T05:14:46.045Z,7.60
2023-04-15T05:17:12.185Z,7.60
2023-04-15T05:19:38.032Z,7.60
2023-04-15T05:22:03.919Z,7.60
2023-04-15T05:24:30.089Z,7.60
2023-04-15T05:26:56.462Z,7.60
2023-04-15T05:29:22.422Z,7.68
2023-04-15T05:31:48.387Z,7.70
2023-04-15T05:34:16.079Z,7.70
2023-04-15T05:36:42.023Z,7.70
2023-04-15T05:39:08.373Z,7.70
2023-04-15T05:41:34.226Z,7.70
2023-04-15T05:44:00.703Z,7.70
2023-04-15T05:46:26.820Z,7.70
2023-04-15T05:48:54.658Z,7.74
2023-04-15T05:51:21.473Z,7.70
2023-04-15T05:53:47.432Z,7.80
2023-04-15T05:56:13.485Z,7.80
2023-04-15T05:58:39.429Z,7.80
2023-04-15T06:01:05.811Z,7.90
2023-04-15T06:03:31.901Z,7.90
2023-04-15T06:05:58.149Z,7.90
2023-04-15T06:08:24.026Z,7.90
2023-04-15T06:10:50.382Z,7.90
2023-04-15T06:13:16.483Z,8.00
2023-04-15T06:15:42.513Z,8.00
2023-04-15T06:18:08.427Z,8.00
2023-04-15T06:20:34.323Z,8.10
2023-04-15T06:23:00.375Z,8.10
2023-04-15T06:25:26.220Z,8.10
2023-04-15T06:27:52.147Z,8.10
2023-04-15T06:30:18.247Z,8.10
2023-04-15T06:32:44.275Z,8.20
2023-04-15T06:35:11.206Z,8.20
2023-04-15T06:37:37.165Z,8.30
2023-04-15T06:40:04.468Z,8.30
2023-04-15T06:42:30.946Z,8.30
2023-04-15T06:44:56.791Z,8.36
2023-04-15T06:47:22.690Z,8.40
2023-04-15T06:49:48.563Z,8.50
2023-04-15T06:52:15.882Z,8.60
2023-04-15T06:54:42.942Z,8.66
2023-04-15T06:57:09.051Z,8.70
2023-04-15T06:59:35.560Z,8.70
2023-04-15T07:02:02.017Z,8.70
2023-04-15T07:04:28.076Z,8.80
2023-04-15T07:06:54.948Z,8.88
2023-04-15T07:09:24.218Z,8.96
2023-04-15T07:11:50.794Z,9.00
2023-04-15T07:14:17.024Z,9.04
2023-04-15T07:16:42.940Z,9.20
2023-04-15T07:19:08.882Z,9.46
2023-04-15T07:21:34.750Z,9.66
2023-04-15T07:24:00.663Z,9.90
2023-04-15T07:26:26.583Z,10.10
2023-04-15T07:28:52.540Z,10.24
2023-04-15T07:31:18.594Z,10.50
2023-04-15T07:33:44.834Z,10.70
2023-04-15T07:36:10.714Z,10.90
2023-04-15T07:38:36.888Z,11.00
2023-04-15T07:41:03.491Z,11.20
2023-04-15T07:43:29.392Z,11.22
2023-04-15T07:45:55.357Z,11.30
2023-04-15T07:48:21.382Z,11.20
2023-04-15T07:50:47.789Z,11.38
2023-04-15T07:53:13.951Z,11.66
2023-04-15T07:55:39.841Z,11.90
2023-04-15T07:58:05.841Z,12.16
2023-04-15T08:00:31.657Z,12.60
2023-04-15T08:02:59.036Z,13.04
2023-04-15T08:05:25.236Z,13.52
2023-04-15T08:07:51.170Z,13.88
2023-04-15T08:10:17.394Z,14.30
2023-04-15T08:12:43.366Z,14.78
2023-04-15T08:15:09.863Z,15.00
2023-04-15T08:17:35.767Z,15.10
2023-04-15T08:20:03.241Z,15.20
2023-04-15T08:22:29.137Z,15.30
2023-04-15T08:24:55.078Z,15.40
2023-04-15T08:27:21.334Z,15.52
2023-04-15T08:29:47.236Z,15.70
2023-04-15T08:32:13.150Z,15.90
2023-04-15T08:34:39.078Z,16.20
2023-04-15T08:37:05.830Z,16.30
2023-04-15T08:39:31.691Z,16.40
2023-04-15T08:42:02.776Z,16.40
2023-04-15T08:44:33.064Z,16.10
2023-04-15T08:47:05.364Z,15.90
2023-04-15T08:49:32.315Z,15.74
2023-04-15T08:51:59.804Z,15.44
2023-04-15T08:54:27.646Z,14.90
2023-04-15T08:56:53.847Z,14.62
2023-04-15T08:59:21.482Z,14.50
2023-04-15T09:01:50.572Z,14.40
2023-04-15T09:04:16.899Z,14.30
2023-04-15T09:06:42.888Z,14.20
2023-04-15T09:09:08.965Z,14.10
2023-04-15T09:11:35.633Z,14.00
2023-04-15T09:14:01.656Z,13.90
2023-04-15T09:16:27.732Z,13.70
2023-04-15T09:18:53.695Z,13.60
2023-04-15T09:21:20.195Z,13.70
2023-04-15T09:24:01.201Z,13.70
2023-04-15T09:26:37.350Z,13.70
2023-04-15T09:29:14.125Z,13.50
2023-04-15T09:31:42.216Z,13.48
2023-04-15T09:34:08.129Z,13.20
2023-04-15T09:36:46.372Z,13.10
2023-04-15T09:39:13.441Z,13.10
2023-04-15T09:41:40.271Z,13.26
2023-04-15T09:44:06.357Z,13.40
2023-04-15T09:46:43.250Z,13.40
2023-04-15T09:49:11.591Z,13.40
2023-04-15T09:51:38.543Z,13.58
2023-04-15T09:54:04.975Z,13.70
2023-04-15T09:56:41.623Z,13.70
2023-04-15T09:59:08.766Z,13.50
2023-04-15T10:01:36.235Z,13.30
2023-04-15T10:04:04.994Z,13.20
2023-04-15T10:06:31.532Z,13.00
2023-04-15T10:08:59.134Z,12.94
2023-04-15T10:11:29.756Z,12.80
2023-04-15T10:13:57.162Z,12.98
2023-04-15T10:16:28.003Z,12.90
2023-04-15T10:19:00.918Z,13.06
2023-04-15T10:21:27.811Z,13.10
2023-04-15T10:23:53.890Z,12.90
2023-04-15T10:26:20.808Z,12.80
2023-04-15T10:28:47.853Z,12.92
2023-04-15T10:31:15.058Z,12.90
2023-04-15T10:33:43.031Z,12.84
2023-04-15T10:36:09.810Z,12.70
2023-04-15T10:38:42.755Z,12.70
2023-04-15T10:41:30.355Z,12.66
2023-04-15T10:44:04.178Z,12.70
2023-04-15T10:46:45.021Z,12.70
2023-04-15T10:49:18.462Z,12.50
2023-04-15T10:51:50.871Z,12.50
2023-04-15T10:54:32.416Z,12.62
2023-04-15T10:57:02.189Z,12.90
2023-04-15T10:59:52.032Z,13.00
2023-04-15T11:02:17.948Z,12.80
2023-04-15T11:04:57.246Z,12.70
2023-04-15T11:07:54.997Z,12.70
2023-04-15T11:10:30.370Z,12.70
2023-04-15T11:12:59.256Z,12.60
2023-04-15T11:15:46.705Z,12.60
2023-04-15T11:18:27.896Z,12.50
2023-04-15T11:21:00.500Z,12.50
2023-04-15T11:23:40.844Z,12.50
2023-04-15T11:26:11.013Z,12.40
2023-04-15T11:28:42.941Z,12.48
2023-04-15T11:31:15.772Z,12.40
2023-04-15T11:34:00.692Z,12.30
2023-04-15T11:36:29.034Z,12.40
2023-04-15T11:38:57.656Z,12.44
2023-04-15T11:41:23.856Z,12.40
2023-04-15T11:43:51.496Z,12.30
2023-04-15T11:46:18.510Z,12.20
2023-04-15T11:48:46.424Z,12.10
2023-04-15T11:51:13.856Z,12.10
2023-04-15T11:53:48.128Z,12.00
2023-04-15T11:56:23.143Z,12.00
2023-04-15T11:58:56.337Z,12.00
2023-04-15T12:01:43.043Z,11.90
2023-04-15T12:04:22.259Z,11.82
2023-04-15T12:06:50.416Z,11.90
2023-04-15T12:09:16.774Z,11.80
2023-04-15T12:11:47.684Z,11.70
2023-04-15T12:14:25.281Z,11.70
2023-04-15T12:16:58.377Z,11.90
2023-04-15T12:19:39.696Z,12.00
2023-04-15T12:22:10.460Z,12.00
2023-04-15T12:24:38.280Z,12.02
2023-04-15T12:27:10.577Z,11.90
2023-04-15T12:29:39.050Z,11.90
2023-04-15T12:32:12.679Z,12.10
2023-04-15T12:34:41.556Z,12.18
2023-04-15T12:37:11.182Z,12.30
2023-04-15T12:39:40.429Z,12.30
2023-04-15T12:42:08.185Z,12.30
2023-04-15T12:44:36.236Z,12.32
2023-04-15T12:47:03.007Z,12.30
2023-04-15T12:49:30.425Z,12.30
2023-04-15T12:52:01.535Z,12.30
2023-04-15T12:54:29.599Z,12.30
2023-04-15T12:56:56.569Z,12.20
2023-04-15T12:59:23.278Z,12.10
2023-04-15T13:01:51.372Z,12.00
2023-04-15T13:04:19.192Z,12.00
2023-04-15T13:06:45.611Z,12.00
2023-04-15T13:09:11.575Z,12.00
2023-04-15T13:11:37.571Z,11.90
2023-04-15T13:14:07.682Z,11.80
2023-04-15T13:16:34.519Z,11.72
2023-04-15T13:19:02.285Z,11.60
2023-04-15T13:21:28.978Z,11.50
2023-04-15T13:23:55.350Z,11.44
2023-04-15T13:26:21.494Z,11.40
2023-04-15T13:28:47.605Z,11.40
2023-04-15T13:31:13.533Z,11.40
2023-04-15T13:33:39.742Z,11.40
2023-04-15T13:36:06.234Z,11.40
2023-04-15T13:38:32.644Z,11.44
2023-04-15T13:40:58.632Z,11.50
2023-04-15T13:43:24.736Z,11.50
2023-04-15T13:45:50.645Z,11.50
2023-04-15T13:48:16.573Z,11.56
2023-04-15T13:50:44.778Z,11.46
2023-04-15T13:53:11.963Z,11.34
2023-04-15T13:55:41.084Z,11.28
2023-04-15T13:58:08.525Z,11.20
2023-04-15T14:00:34.439Z,11.20
2023-04-15T14:03:00.692Z,11.20
2023-04-15T14:05:26.903Z,11.20
2023-04-15T14:07:52.958Z,11.20
2023-04-15T14:10:18.837Z,11.12
2023-04-15T14:12:44.887Z,11.06
2023-04-15T14:15:10.913Z,11.10
2023-04-15T14:17:36.980Z,11.18
2023-04-15T14:20:03.548Z,11.18
2023-04-15T14:22:29.523Z,11.20
2023-04-15T14:24:55.569Z,11.30
2023-04-15T14:27:22.043Z,11.40
2023-04-15T14:29:48.163Z,11.38
2023-04-15T14:32:15.640Z,11.30
2023-04-15T14:34:43.192Z,11.40
2023-04-15T14:37:09.297Z,11.40
2023-04-15T14:39:35.255Z,11.40
2023-04-15T14:42:01.169Z,11.30
2023-04-15T14:44:27.057Z,11.30
2023-04-15T14:46:53.904Z,11.30
2023-04-15T14:49:20.182Z,11.30
2023-04-15T14:51:46.107Z,11.28
2023-04-15T14:54:12.070Z,11.20
2023-04-15T14:56:37.997Z,11.10
2023-04-15T14:59:04.063Z,11.20
2023-04-15T15:01:30.311Z,11.28
2023-04-15T15:03:56.343Z,11.30
2023-04-15T15:06:22.421Z,11.30
2023-04-15T15:08:48.828Z,11.20
2023-04-15T15:11:16.375Z,11.00
2023-04-15T15:13:42.412Z,10.82
2023-04-15T15:16:08.450Z,10.80
2023-04-15T15:18:35.472Z,10.70
2023-04-15T15:21:01.460Z,10.60
2023-04-15T15:23:27.368Z,10.50
2023-04-15T15:25:53.396Z,10.40
2023-04-15T15:28:21.033Z,10.26
2023-04-15T15:30:47.507Z,10.10
2023-04-15T15:33:13.515Z,10.00
2023-04-15T15:35:40.257Z,9.86
2023-04-15T15:38:06.346Z,9.80
2023-04-15T15:40:32.512Z,9.80
2023-04-15T15:42:58.400Z,9.80
2023-04-15T15:45:24.363Z,9.80
2023-04-15T15:47:51.053Z,9.70
2023-04-15T15:50:17.192Z,9.60
2023-04-15T15:52:43.447Z,9.60
2023-04-15T15:55:09.554Z,9.70
2023-04-15T15:57:36.048Z,9.80
2023-04-15T16:02:59.729Z,9.70
2023-04-15T16:05:18.321Z,9.70
2023-04-15T16:07:44.452Z,9.72
2023-04-15T16:10:11.818Z,9.70
2023-04-15T16:12:37.828Z,9.70
2023-04-15T16:15:04.742Z,9.60
2023-04-15T16:17:31.524Z,9.60
2023-04-15T16:20:00.835Z,9.60
2023-04-15T16:22:27.286Z,9.60
2023-04-15T16:24:53.330Z,9.60
2023-04-15T16:27:19.246Z,9.60
2023-04-15T16:29:45.286Z,9.50
2023-04-15T16:32:11.234Z,9.40
2023-04-15T16:34:38.561Z,9.40
2023-04-15T16:37:04.772Z,9.40
2023-04-15T16:39:30.745Z,9.40
2023-04-15T16:41:57.264Z,9.40
2023-04-15T16:44:23.849Z,9.40
2023-04-15T16:46:49.770Z,9.40
2023-04-15T16:49:15.771Z,9.50
2023-04-15T16:51:41.704Z,9.40
2023-04-15T16:54:08.144Z,9.30
2023-04-15T16:56:34.010Z,9.20
2023-04-15T16:59:00.103Z,9.10
2023-04-15T17:01:26.083Z,9.04
2023-04-15T17:03:54.092Z,9.10
2023-04-15T17:06:22.130Z,9.14
2023-04-15T17:08:48.128Z,9.20
2023-04-15T17:11:14.894Z,9.20
2023-04-15T17:13:40.817Z,9.14
2023-04-15T17:16:07.125Z,9.20
2023-04-15T17:18:33.041Z,9.20
2023-04-15T17:21:00.253Z,9.18
2023-04-15T17:23:26.713Z,9.10
2023-04-15T17:25:53.264Z,9.10
2023-04-15T17:28:19.118Z,9.00
2023-04-15T17:30:45.211Z,9.00
2023-04-15T17:33:55.952Z,8.94
2023-04-15T17:35:57.828Z,8.90
2023-04-15T17:38:23.774Z,8.90
2023-04-15T17:40:49.964Z,8.90
2023-04-15T17:43:15.849Z,8.80
2023-04-15T17:45:42.673Z,8.80
2023-04-15T17:48:08.650Z,8.72
2023-04-15T17:50:34.822Z,8.70
2023-04-15T17:53:00.663Z,8.70
2023-04-15T17:55:26.710Z,8.70
2023-04-15T17:57:52.620Z,8.70
2023-04-15T18:00:18.572Z,8.70
2023-04-15T18:02:44.655Z,8.66
2023-04-15T18:05:10.950Z,8.70
2023-04-15T18:07:37.022Z,8.60
2023-04-15T18:10:03.323Z,8.60
2023-04-15T18:12:29.321Z,8.50
2023-04-15T18:14:55.353Z,8.50
2023-04-15T18:17:21.350Z,8.50
2023-04-15T18:19:47.283Z,8.50
2023-04-15T18:22:13.196Z,8.50
2023-04-15T18:24:39.092Z,8.58
2023-04-15T18:27:05.054Z,8.50
2023-04-15T18:29:31.052Z,8.50
2023-04-15T18:31:59.393Z,8.50
2023-04-15T18:34:25.584Z,8.60
2023-04-15T18:36:51.577Z,8.60
2023-04-15T18:39:17.674Z,8.60
2023-04-15T18:41:43.563Z,8.60
2023-04-15T18:44:09.520Z,8.60
2023-04-15T18:46:35.526Z,8.60
2023-04-15T18:49:02.164Z,8.60
2023-04-15T18:51:28.648Z,8.60
2023-04-15T18:53:55.053Z,8.60
2023-04-15T18:56:20.996Z,8.60
2023-04-15T18:59:09.992Z,8.60
2023-04-15T19:01:32.884Z,8.50
2023-04-15T19:03:58.802Z,8.50
2023-04-15T19:06:26.603Z,8.46
2023-04-15T19:08:52.665Z,8.50
2023-04-15T19:11:18.510Z,8.50
2023-04-15T19:13:44.584Z,8.50
2023-04-15T19:16:10.466Z,8.50
2023-04-15T19:18:36.429Z,8.50
2023-04-15T19:21:03.416Z,8.50
2023-04-15T19:23:31.209Z,8.50
2023-04-15T19:25:58.124Z,8.50
2023-04-15T19:28:24.680Z,8.50
2023-04-15T19:30:51.935Z,8.40
2023-04-15T19:33:17.816Z,8.40
2023-04-15T19:35:43.996Z,8.40
2023-04-15T19:38:09.975Z,8.40
2023-04-15T19:40:35.850Z,8.40
2023-04-15T19:43:01.685Z,8.40
2023-04-15T19:45:27.639Z,8.40
2023-04-15T19:47:53.693Z,8.38
2023-04-15T19:50:23.880Z,8.36
2023-04-15T19:52:49.838Z,8.32
2023-04-15T19:55:16.003Z,8.34
2023-04-15T19:57:41.903Z,8.30
2023-04-15T20:00:08.659Z,8.32
2023-04-15T20:02:34.849Z,8.40
2023-04-15T20:05:00.797Z,8.40
2023-04-15T20:07:27.060Z,8.40
2023-04-15T20:09:53.244Z,8.40
2023-04-15T20:12:51.301Z,8.40
2023-04-15T20:15:07.534Z,8.40
2023-04-15T20:17:33.582Z,8.40
2023-04-15T20:19:59.559Z,8.34
2023-04-15T20:22:25.623Z,8.34
2023-04-15T20:24:51.628Z,8.38
2023-04-15T20:27:17.611Z,8.34
2023-04-15T20:29:43.570Z,8.30
2023-04-15T20:32:10.841Z,8.30
2023-04-15T20:34:39.850Z,8.30
2023-04-15T20:37:07.028Z,8.20
2023-04-15T20:39:33.390Z,8.20
2023-04-15T20:41:59.333Z,8.20
2023-04-15T20:44:25.906Z,8.20
2023-04-15T20:46:51.883Z,8.20
2023-04-15T20:49:17.871Z,8.20
2023-04-15T20:51:43.743Z,8.20
2023-04-15T20:54:10.248Z,8.10
2023-04-15T20:56:36.136Z,8.10
2023-04-15T20:59:02.424Z,8.10
2023-04-15T21:01:28.536Z,8.20
2023-04-15T21:03:54.657Z,8.20
2023-04-15T21:06:20.644Z,8.20
2023-04-15T21:08:46.465Z,8.20
2023-04-15T21:11:14.808Z,8.10
2023-04-15T21:13:46.948Z,8.10
2023-04-15T21:16:12.875Z,8.10
2023-04-15T21:18:38.774Z,8.10
2023-04-15T21:21:05.382Z,8.20
2023-04-15T21:23:35.154Z,8.20
2023-04-15T21:26:01.633Z,8.20
2023-04-15T21:28:29.274Z,8.10
2023-04-15T21:30:56.438Z,8.00
2023-04-15T21:33:23.632Z,8.00
2023-04-15T21:35:49.795Z,8.00
2023-04-15T21:38:15.651Z,8.10
2023-04-15T21:40:41.566Z,8.08
2023-04-15T21:43:07.801Z,8.02
2023-04-15T21:45:35.220Z,8.00
2023-04-15T21:48:07.831Z,8.00
2023-04-15T21:50:37.447Z,8.00
2023-04-15T21:53:06.152Z,8.00
2023-04-15T21:55:32.076Z,7.92
2023-04-15T21:57:58.019Z,7.90
2023-04-15T22:00:24.102Z,7.90
2023-04-15T22:02:50.731Z,7.84
2023-04-15T22:05:16.839Z,7.80
2023-04-15T22:07:43.382Z,7.80
2023-04-15T22:10:10.039Z,7.80
2023-04-15T22:12:35.956Z,7.78
2023-04-15T22:15:03.781Z,7.70
2023-04-15T22:17:30.058Z,7.70
2023-04-15T22:19:56.038Z,7.70
2023-04-15T22:22:21.880Z,7.70
2023-04-15T22:25:01.476Z,7.70
2023-04-15T22:27:27.364Z,7.70
2023-04-15T22:29:53.764Z,7.70
2023-04-15T22:32:19.649Z,7.70
2023-04-15T22:34:45.595Z,7.70
2023-04-15T22:37:11.554Z,7.70
2023-04-15T22:39:37.413Z,7.70
2023-04-15T22:42:03.278Z,7.68
2023-04-15T22:44:29.181Z,7.60
2023-04-15T22:46:55.033Z,7.60
2023-04-15T22:49:20.906Z,7.60
2023-04-15T22:51:46.780Z,7.60
2023-04-15T22:54:12.657Z,7.58
2023-04-15T22:56:38.554Z,7.50
2023-04-15T22:59:04.480Z,7.50
2023-04-15T23:01:31.343Z,7.50
2023-04-15T23:04:07.037Z,7.50
2023-04-15T23:06:43.208Z,7.40
2023-04-15T23:09:09.270Z,7.40
2023-04-15T23:11:35.440Z,7.40
2023-04-15T23:14:01.359Z,7.40
2023-04-15T23:16:27.343Z,7.32
2023-04-15T23:18:53.679Z,7.30
2023-04-15T23:21:20.148Z,7.30
2023-04-15T23:23:46.036Z,7.30
2023-04-15T23:26:11.893Z,7.30
2023-04-15T23:28:37.773Z,7.30
2023-04-15T23:31:03.818Z,7.30
2023-04-15T23:33:31.864Z,7.30
2023-04-15T23:35:58.053Z,7.30
2023-04-15T23:38:23.957Z,7.38
2023-04-15T23:40:50.582Z,7.40
2023-04-15T23:43:16.520Z,7.30
2023-04-15T23:45:42.424Z,7.30
2023-04-15T23:48:08.397Z,7.30
2023-04-15T23:50:34.470Z,7.30
2023-04-15T23:53:00.349Z,7.24
2023-04-15T23:55:26.257Z,7.24
2023-04-15T23:57:52.150Z,7.20
